Time;durP1;ratioP1;P1;durP2;ratioP2;P2;SDS_P1;SDS_P2;PMS_P1;PMS_P2;Temp;Humidity;BMP_temperature;BMP_pressure;BME280_temperature;BME280_humidity;BME280_pressure;Samples;Min_cycle;Max_cycle;Signal;HPM_P1;HPM_P2
2024/03/07 00:01:07;;;;;;;24.05;14.00;;;;;;;4.43;94.89;101754.19;5187074;28;20022;-73
2024/03/07 00:03:39;;;;;;;23.88;13.18;;;;;;;4.49;94.58;101761.97;5189521;28;20392;-73
2024/03/07 00:06:09;;;;;;;23.42;13.18;;;;;;;4.41;93.26;101761.06;5196998;28;20116;-73
2024/03/07 00:08:40;;;;;;;26.90;13.85;;;;;;;4.41;94.24;101761.06;5196355;28;20117;-73
2024/03/07 00:11:10;;;;;;;21.00;13.05;;;;;;;4.41;94.94;101765.34;5194462;28;20501;-73
2024/03/07 00:13:40;;;;;;;22.40;13.10;;;;;;;4.44;94.69;101757.66;5193932;28;20030;-73
2024/03/07 00:16:11;;;;;;;24.50;13.75;;;;;;;4.34;94.05;101761.88;5182798;28;20483;-73
2024/03/07 00:18:41;;;;;;;29.02;14.43;;;;;;;4.36;95.17;101761.88;5192305;28;20435;-73
2024/03/07 00:21:12;;;;;;;22.95;13.07;;;;;;;4.41;94.75;101755.00;5195089;28;20080;-71
2024/03/07 00:23:43;;;;;;;25.00;12.80;;;;;;;4.36;94.88;101756.69;5194971;28;20116;-73
2024/03/07 00:26:14;;;;;;;22.60;13.13;;;;;;;4.29;94.89;101758.38;5193469;28;20029;-73
2024/03/07 00:28:44;;;;;;;24.35;12.88;;;;;;;4.25;94.80;101750.56;5183798;28;20040;-73
2024/03/07 00:31:14;;;;;;;24.13;12.88;;;;;;;4.30;94.89;101751.50;5188038;28;20036;-73
2024/03/07 00:33:44;;;;;;;22.20;11.70;;;;;;;4.21;95.26;101761.75;5194666;28;20033;-73
2024/03/07 00:36:15;;;;;;;22.98;14.10;;;;;;;4.22;95.77;101756.59;5195706;28;20033;-72
2024/03/07 00:38:45;;;;;;;23.98;12.48;;;;;;;4.23;96.40;101757.44;5192668;28;20089;-73
2024/03/07 00:41:17;;;;;;;24.17;13.00;;;;;;;4.16;96.46;101753.94;5193789;28;20025;-73
2024/03/07 00:43:47;;;;;;;20.75;12.38;;;;;;;4.22;96.76;101754.00;5193190;28;20161;-72
2024/03/07 00:46:17;;;;;;;22.83;12.60;;;;;;;4.24;96.56;101752.28;5186632;28;20132;-73
2024/03/07 00:48:48;;;;;;;22.25;12.15;;;;;;;4.18;96.04;101752.25;5191114;28;20053;-73
2024/03/07 00:51:18;;;;;;;21.70;12.75;;;;;;;4.27;96.29;101749.72;5194550;28;20048;-73
2024/03/07 00:53:49;;;;;;;22.15;12.35;;;;;;;4.37;96.71;101750.66;5192909;28;20033;-72
2024/03/07 00:56:20;;;;;;;23.35;12.77;;;;;;;4.43;96.58;101754.19;5193336;28;20025;-73
2024/03/07 00:58:51;;;;;;;22.33;12.43;;;;;;;4.53;96.00;101745.66;5195072;28;20029;-73
2024/03/07 01:01:21;;;;;;;21.17;11.90;;;;;;;4.53;96.05;101744.75;5185793;28;20033;-73
2024/03/07 01:03:52;;;;;;;24.40;11.57;;;;;;;4.48;94.98;101752.47;5190966;28;20033;-73
2024/03/07 01:06:22;;;;;;;20.83;11.80;;;;;;;4.64;95.91;101740.53;5192598;28;20029;-73
2024/03/07 01:08:52;;;;;;;22.75;11.57;;;;;;;4.53;95.34;101740.47;5194872;28;20061;-73
2024/03/07 01:11:23;;;;;;;18.70;11.48;;;;;;;4.67;95.78;101735.38;5196371;28;20032;-72
2024/03/07 01:13:53;;;;;;;22.20;11.60;;;;;;;4.72;95.94;101739.75;5195121;28;20202;-73
2024/03/07 01:16:24;;;;;;;20.48;11.95;;;;;;;4.69;95.97;101742.31;5188023;28;20041;-72
2024/03/07 01:18:54;;;;;;;22.48;10.55;;;;;;;4.84;96.90;101742.38;5194066;28;20021;-73
2024/03/07 01:21:25;;;;;;;21.25;11.55;;;;;;;4.85;95.71;101733.78;5195932;28;20040;-73
2024/03/07 01:23:56;;;;;;;18.60;10.20;;;;;;;4.96;95.70;101732.09;5196784;28;20033;-73
2024/03/07 01:26:28;;;;;;;19.33;10.35;;;;;;;5.02;95.81;101739.03;5195539;28;20608;-73
2024/03/07 01:28:59;;;;;;;18.65;10.45;;;;;;;5.09;95.94;101736.50;5190077;28;20491;-73
2024/03/07 01:31:29;;;;;;;19.88;10.23;;;;;;;5.09;95.38;101728.72;5194703;28;20033;-76
2024/03/07 01:33:59;;;;;;;19.70;10.57;;;;;;;5.08;95.22;101732.19;5196608;28;20025;-73
2024/03/07 01:36:30;;;;;;;17.50;9.90;;;;;;;5.17;95.33;101727.03;5195886;28;20025;-73
2024/03/07 01:39:01;;;;;;;19.95;10.77;;;;;;;5.21;95.27;101733.09;5196171;28;20486;-73
2024/03/07 01:41:34;;;;;;;19.67;10.32;;;;;;;5.23;95.36;101732.25;5194633;28;20471;-73
2024/03/07 01:44:04;;;;;;;18.75;10.65;;;;;;;5.20;94.72;101732.25;5194610;28;20052;-73
2024/03/07 01:46:35;;;;;;;20.73;10.57;;;;;;;5.22;94.99;101733.13;5195058;28;20029;-73
2024/03/07 01:49:07;;;;;;;18.92;10.35;;;;;;;5.21;95.81;101739.16;5179448;28;20060;-73
2024/03/07 01:51:38;;;;;;;17.45;9.73;;;;;;;5.23;96.75;101732.25;5175884;28;20042;-73
2024/03/07 01:54:09;;;;;;;18.13;10.30;;;;;;;5.28;96.78;101735.72;5182377;28;20025;-73
2024/03/07 01:56:40;;;;;;;17.65;9.75;;;;;;;5.37;96.07;101730.59;5192444;28;20167;-73
2024/03/07 01:59:12;;;;;;;20.05;9.65;;;;;;;5.49;96.12;101725.44;5194618;28;20500;-73
2024/03/07 02:01:43;;;;;;;16.75;9.20;;;;;;;5.54;94.87;101723.72;5195127;28;20057;-73
2024/03/07 02:04:14;;;;;;;17.05;9.88;;;;;;;5.62;94.89;101722.91;5195925;28;20079;-73
2024/03/07 02:06:44;;;;;;;17.38;9.43;;;;;;;5.41;94.73;101715.03;5195848;28;20037;-73
2024/03/07 02:09:15;;;;;;;16.20;9.70;;;;;;;5.44;95.82;101733.19;5193255;28;20487;-73
2024/03/07 02:11:48;;;;;;;20.13;9.23;;;;;;;5.38;95.99;101719.34;5192336;28;20033;-72
2024/03/07 02:14:19;;;;;;;18.08;9.63;;;;;;;5.43;96.43;101712.44;5194784;28;20246;-73
2024/03/07 02:16:49;;;;;;;17.02;9.57;;;;;;;5.37;96.43;101715.03;5191878;28;20087;-73
2024/03/07 02:19:20;;;;;;;17.23;9.80;;;;;;;5.40;97.13;101713.31;5195576;28;20376;-73
2024/03/07 02:21:51;;;;;;;17.27;9.65;;;;;;;5.42;97.29;101713.31;5194619;28;20021;-72
2024/03/07 02:24:21;;;;;;;21.23;10.13;;;;;;;5.40;96.49;101715.03;5194532;28;20022;-73
2024/03/07 02:26:52;;;;;;;15.80;9.80;;;;;;;5.41;97.83;101716.78;5195507;28;20418;-73
2024/03/07 02:29:22;;;;;;;18.33;10.27;;;;;;;5.29;97.45;101715.88;5195394;28;20112;-72
2024/03/07 02:31:52;;;;;;;17.52;9.80;;;;;;;5.22;97.99;101709.78;5195999;28;20121;-73
2024/03/07 02:34:23;;;;;;;16.75;9.35;;;;;;;5.28;98.84;101715.00;5195664;28;20109;-73
2024/03/07 02:36:53;;;;;;;17.60;9.68;;;;;;;5.19;98.25;101704.56;5195836;28;20029;-73
2024/03/07 02:39:26;;;;;;;16.65;9.93;;;;;;;5.22;98.62;101709.78;5196696;28;20068;-73
2024/03/07 02:41:56;;;;;;;15.02;8.95;;;;;;;5.25;99.19;101712.38;5199608;28;20024;-73
2024/03/07 02:44:27;;;;;;;18.25;9.88;;;;;;;5.33;99.06;101702.91;5200030;28;20029;-73
2024/03/07 02:46:58;;;;;;;14.85;8.70;;;;;;;5.42;98.97;101692.59;5191574;28;20080;-73
2024/03/07 02:49:29;;;;;;;19.95;10.10;;;;;;;5.51;97.84;101697.78;5199251;28;20542;-73
2024/03/07 02:51:59;;;;;;;17.02;9.57;;;;;;;5.52;97.83;101700.38;5200270;28;20048;-73
2024/03/07 02:54:29;;;;;;;16.55;9.38;;;;;;;5.68;96.60;101701.28;5200019;28;20398;-73
2024/03/07 02:57:01;;;;;;;15.73;9.15;;;;;;;5.54;96.12;101696.06;5200787;28;20029;-73
2024/03/07 02:59:32;;;;;;;19.05;9.43;;;;;;;5.45;96.96;101693.47;5198096;28;20031;-73
2024/03/07 03:02:02;;;;;;;17.63;9.73;;;;;;;5.55;97.52;101696.94;5196293;28;20411;-73
2024/03/07 03:04:33;;;;;;;19.67;9.85;;;;;;;5.49;97.81;101700.38;5192354;28;20034;-73
2024/03/07 03:07:04;;;;;;;17.50;9.07;;;;;;;5.53;97.05;101689.16;5196357;28;20052;-73
2024/03/07 03:09:34;;;;;;;18.10;9.70;;;;;;;5.55;97.64;101689.16;5177656;28;20045;-73
2024/03/07 03:12:05;;;;;;;18.38;9.98;;;;;;;5.62;97.48;101685.72;5198820;28;20025;-72
2024/03/07 03:14:35;;;;;;;16.67;9.32;;;;;;;5.45;97.57;101687.41;5197500;28;20079;-73
2024/03/07 03:17:08;;;;;;;17.33;9.93;;;;;;;5.49;98.21;101689.13;5198198;28;20034;-73
2024/03/07 03:19:39;;;;;;;15.15;8.52;;;;;;;5.50;99.14;101683.97;5197686;28;20033;-73
2024/03/07 03:22:10;;;;;;;18.63;9.45;;;;;;;5.56;97.72;101683.97;5199017;28;20087;-73
2024/03/07 03:24:41;;;;;;;17.20;9.63;;;;;;;5.61;97.50;101686.56;5196971;28;20510;-73
2024/03/07 03:27:11;;;;;;;16.48;9.70;;;;;;;5.56;97.43;101686.56;5198514;28;20052;-73
2024/03/07 03:29:41;;;;;;;19.63;10.13;;;;;;;5.61;97.98;101678.78;5196728;28;20030;-73
2024/03/07 03:32:12;;;;;;;17.13;9.10;;;;;;;5.76;96.55;101681.41;5197069;28;20079;-73
2024/03/07 03:34:42;;;;;;;17.88;10.50;;;;;;;5.84;96.36;101674.53;5197619;28;20129;-72
2024/03/07 03:37:13;;;;;;;19.13;10.23;;;;;;;5.81;95.45;101675.41;5199385;28;20022;-73
2024/03/07 03:39:44;;;;;;;15.13;9.10;;;;;;;5.87;96.10;101671.94;5198760;28;20029;-73
2024/03/07 03:42:15;;;;;;;18.92;9.60;;;;;;;5.78;96.74;101677.97;5197765;28;20017;-73
2024/03/07 03:44:45;;;;;;;17.45;9.85;;;;;;;5.89;96.67;101675.44;5197661;28;20025;-73
2024/03/07 03:47:15;;;;;;;17.85;10.35;;;;;;;5.69;96.72;101679.66;5197480;28;20095;-73
2024/03/07 03:49:46;;;;;;;21.15;9.75;;;;;;;5.77;97.39;101680.56;5196565;28;20038;-73
2024/03/07 03:52:16;;;;;;;19.25;10.13;;;;;;;5.69;98.13;101682.25;5197944;28;20048;-73
2024/03/07 03:54:47;;;;;;;16.75;10.27;;;;;;;5.74;99.08;101675.38;5196940;28;20033;-73
2024/03/07 03:57:18;;;;;;;17.55;9.95;;;;;;;5.66;98.38;101677.94;5195787;28;20399;-73
2024/03/07 03:59:48;;;;;;;18.65;9.80;;;;;;;5.67;99.24;101678.78;5193305;28;20026;-73
2024/03/07 04:02:19;;;;;;;19.02;10.73;;;;;;;5.77;98.89;101676.22;5192106;28;20484;-73
2024/03/07 04:04:50;;;;;;;18.30;10.35;;;;;;;5.85;98.68;101669.38;5196214;28;20025;-73
2024/03/07 04:07:21;;;;;;;19.08;10.68;;;;;;;5.86;97.99;101673.69;5191212;28;20017;-73
2024/03/07 04:09:52;;;;;;;16.77;9.80;;;;;;;5.97;98.07;101673.69;5196748;28;20040;-73
2024/03/07 04:12:22;;;;;;;18.60;10.05;;;;;;;5.91;97.63;101671.09;5198312;28;20029;-73
2024/03/07 04:14:54;;;;;;;20.80;10.90;;;;;;;5.86;97.26;101665.03;5197913;28;20040;-73
2024/03/07 04:17:25;;;;;;;19.52;10.45;;;;;;;6.00;97.70;101673.69;5195278;28;20494;-72
2024/03/07 04:19:55;;;;;;;18.98;10.48;;;;;;;6.01;98.12;101672.81;5197807;28;20076;-73
2024/03/07 04:22:26;;;;;;;20.27;11.48;;;;;;;6.02;97.85;101669.34;5197601;28;20403;-72
2024/03/07 04:24:56;;;;;;;20.02;11.27;;;;;;;6.10;98.64;101672.84;5197433;28;20379;-73
2024/03/07 04:27:27;;;;;;;20.90;11.38;;;;;;;6.03;99.08;101664.19;5197740;28;20095;-73
2024/03/07 04:29:58;;;;;;;23.00;11.48;;;;;;;6.11;100.00;101666.78;5198426;28;20437;-73
2024/03/07 04:32:28;;;;;;;23.80;11.45;;;;;;;6.12;100.00;101664.16;5196358;28;20021;-73
2024/03/07 04:35:00;;;;;;;22.48;11.65;;;;;;;5.99;100.00;101661.59;5197737;28;20037;-73
2024/03/07 04:37:30;;;;;;;24.13;12.13;;;;;;;6.07;100.00;101670.25;5197255;28;20433;-72
2024/03/07 04:40:01;;;;;;;25.38;12.05;;;;;;;6.03;100.00;101664.19;5194815;28;20037;-73
2024/03/07 04:42:31;;;;;;;25.50;12.45;;;;;;;6.10;100.00;101665.06;5197212;28;20395;-72
2024/03/07 04:45:02;;;;;;;32.20;12.60;;;;;;;6.14;100.00;101664.19;5196370;28;20128;-74
2024/03/07 04:47:32;;;;;;;28.10;12.52;;;;;;;6.08;100.00;101665.03;5198788;28;20030;-72
2024/03/07 04:50:04;;;;;;;27.92;12.50;;;;;;;6.12;100.00;101664.16;5196682;28;20442;-73
2024/03/07 04:52:34;;;;;;;31.85;12.82;;;;;;;6.02;100.00;101665.03;5196720;28;20017;-73
2024/03/07 04:55:10;;;;;;;42.95;14.40;;;;;;;5.98;100.00;101660.72;5197550;28;20038;-73
2024/03/07 04:57:41;;;;;;;32.20;13.55;;;;;;;6.04;100.00;101670.22;5194722;28;20037;-73
2024/03/07 05:00:14;;;;;;;29.30;13.60;;;;;;;5.91;100.00;101669.34;5195682;28;20538;-73
2024/03/07 05:02:49;;;;;;;31.90;14.00;;;;;;;5.99;100.00;101666.78;5194756;28;20029;-73
2024/03/07 05:05:25;;;;;;;34.08;14.10;;;;;;;5.95;100.00;101662.44;5196655;28;20026;-73
2024/03/07 05:07:55;;;;;;;;;;;;;;;6.03;100.00;101665.91;5197916;28;20021;-73
2024/03/07 05:10:29;;;;;;;42.58;15.98;;;;;;;6.06;100.00;101668.53;5196953;28;19917;-73
2024/03/07 05:12:59;;;;;;;52.72;17.00;;;;;;;5.92;100.00;101670.22;5192078;28;20517;-73
2024/03/07 05:15:30;;;;;;;48.05;17.42;;;;;;;5.76;100.00;101673.63;5192186;28;20022;-72
2024/03/07 05:18:00;;;;;;;47.45;18.42;;;;;;;5.82;100.00;101665.88;5197788;28;20124;-73
2024/03/07 05:20:31;;;;;;;58.88;19.67;;;;;;;5.65;100.00;101670.16;5197308;28;20029;-72
2024/03/07 05:23:05;;;;;;;61.67;19.55;;;;;;;5.65;100.00;101671.03;5197490;28;20036;-73
2024/03/07 05:25:35;;;;;;;52.70;19.40;;;;;;;5.70;100.00;101668.44;5193587;28;20033;-73
2024/03/07 05:28:05;;;;;;;53.30;19.63;;;;;;;5.80;100.00;101676.28;5194365;28;20423;-73
2024/03/07 05:30:36;;;;;;;53.97;19.38;;;;;;;5.93;100.00;101674.56;5184917;28;20025;-73
2024/03/07 05:33:07;;;;;;;53.55;19.60;;;;;;;5.92;100.00;101673.69;5189624;28;20026;-73
2024/03/07 05:35:37;;;;;;;56.58;19.95;;;;;;;5.95;100.00;101672.81;5195211;28;20028;-73
2024/03/07 05:38:08;;;;;;;60.92;20.00;;;;;;;6.01;100.00;101672.81;5191190;28;20099;-73
2024/03/07 05:40:38;;;;;;;60.58;19.65;;;;;;;5.93;100.00;101669.38;5195255;28;20514;-73
2024/03/07 05:43:09;;;;;;;61.65;20.73;;;;;;;5.84;100.00;101683.19;5190543;28;20392;-74
2024/03/07 05:45:39;;;;;;;65.35;21.27;;;;;;;5.74;100.00;101675.38;5184208;28;20022;-73
2024/03/07 05:48:15;;;;;;;58.75;20.20;;;;;;;5.91;100.00;101673.69;5185828;28;20037;-73
2024/03/07 05:50:46;;;;;;;59.95;20.23;;;;;;;6.00;100.00;101679.75;5188482;28;20483;-73
2024/03/07 05:53:17;;;;;;;66.55;22.33;;;;;;;5.93;100.00;101682.34;5190600;28;20032;-73
2024/03/07 05:55:48;;;;;;;64.63;22.75;;;;;;;5.98;100.00;101670.22;5188252;28;20033;-74
2024/03/07 05:58:21;;;;;;;57.83;21.10;;;;;;;5.96;100.00;101675.44;5194189;28;20368;-73
2024/03/07 06:00:52;;;;;;;56.05;20.35;;;;;;;6.02;100.00;101669.34;5190424;28;20227;-73
2024/03/07 06:03:24;;;;;;;71.07;23.30;;;;;;;5.99;100.00;101680.63;5195131;28;20029;-73
2024/03/07 06:05:54;;;;;;;59.28;21.40;;;;;;;6.00;100.00;101673.69;5193392;28;20025;-75
2024/03/07 06:08:24;;;;;;;64.28;22.95;;;;;;;5.98;100.00;101681.50;5191330;28;20031;-73
2024/03/07 06:10:55;;;;;;;62.95;22.10;;;;;;;5.88;100.00;101678.88;5173393;28;20116;-73
2024/03/07 06:13:25;;;;;;;68.80;21.63;;;;;;;5.93;100.00;101677.16;5189812;28;20032;-73
2024/03/07 06:15:55;;;;;;;72.25;24.38;;;;;;;5.91;100.00;101684.06;5177172;28;20034;-73
2024/03/07 06:18:30;;;;;;;70.72;24.08;;;;;;;5.92;100.00;101683.22;5183511;28;20435;-73
2024/03/07 06:21:00;;;;;;;77.68;23.98;;;;;;;5.90;100.00;101695.31;5190812;28;20022;-73
2024/03/07 06:23:30;;;;;;;72.35;22.90;;;;;;;6.02;100.00;101690.13;5191433;28;20541;-73
2024/03/07 06:26:06;;;;;;;71.32;23.42;;;;;;;6.05;100.00;101692.75;5191038;28;20026;-73
2024/03/07 06:28:36;;;;;;;76.13;23.45;;;;;;;6.17;100.00;101684.94;5192863;28;20701;-73
2024/03/07 06:31:07;;;;;;;85.78;25.27;;;;;;;6.18;100.00;101694.44;5189396;28;20040;-73
2024/03/07 06:33:38;;;;;;;76.97;23.25;;;;;;;6.24;100.00;101699.66;5190141;28;20056;-73
2024/03/07 06:36:08;;;;;;;87.40;24.63;;;;;;;6.14;100.00;101698.78;5195010;28;20025;-73
2024/03/07 06:38:39;;;;;;;76.65;24.33;;;;;;;6.20;100.00;101700.50;5196043;28;20314;-73
2024/03/07 06:41:10;;;;;;;67.72;23.90;;;;;;;6.32;100.00;101688.41;5195817;28;20069;-73
2024/03/07 06:43:41;;;;;;;78.00;23.45;;;;;;;6.32;100.00;101695.31;5186407;28;20018;-73
2024/03/07 06:46:16;;;;;;;79.28;23.00;;;;;;;6.32;100.00;101700.50;5185346;28;20061;-73
2024/03/07 06:48:46;;;;;;;93.03;26.67;;;;;;;6.11;100.00;101698.75;5187458;28;20361;-74
2024/03/07 06:51:17;;;;;;;80.90;24.27;;;;;;;6.33;100.00;101692.72;5189455;28;20596;-73
2024/03/07 06:53:48;;;;;;;79.43;24.08;;;;;;;6.25;100.00;101702.22;5192873;28;20029;-73
2024/03/07 06:56:19;;;;;;;90.57;24.00;;;;;;;6.22;100.00;101694.47;5190047;28;20486;-73
2024/03/07 06:58:49;;;;;;;87.00;23.50;;;;;;;6.17;100.00;101697.91;5190037;28;20447;-74
2024/03/07 07:01:19;;;;;;;86.20;24.08;;;;;;;6.07;100.00;101703.97;5191220;28;20028;-73
2024/03/07 07:03:49;;;;;;;102.45;25.77;;;;;;;6.17;100.00;101711.75;5188463;28;20017;-73
2024/03/07 07:06:20;;;;;;;95.82;25.05;;;;;;;6.28;100.00;101702.22;5191336;28;20430;-73
2024/03/07 07:08:50;;;;;;;80.53;24.25;;;;;;;6.25;100.00;101694.44;5196027;28;20094;-73
2024/03/07 07:11:20;;;;;;;86.53;24.35;;;;;;;6.25;100.00;101701.38;5194420;28;20503;-73
2024/03/07 07:13:51;;;;;;;92.53;25.73;;;;;;;6.28;100.00;101702.22;5190126;28;20022;-73
2024/03/07 07:16:21;;;;;;;83.85;23.38;;;;;;;6.29;100.00;101708.31;5181501;28;21447;-73
2024/03/07 07:18:52;;;;;;;75.28;22.95;;;;;;;6.25;100.00;101701.38;5176503;28;20045;-73
2024/03/07 07:21:22;;;;;;;85.10;24.75;;;;;;;6.32;100.00;101714.38;5175199;28;20032;-73
2024/03/07 07:23:53;;;;;;;82.45;24.27;;;;;;;6.20;100.00;101709.16;5160893;28;20440;-73
2024/03/07 07:26:23;;;;;;;75.63;23.63;;;;;;;6.45;100.00;101710.03;5188642;28;20324;-74
2024/03/07 07:28:54;;;;;;;77.18;24.33;;;;;;;6.38;100.00;101708.28;5183095;28;21218;-73
2024/03/07 07:31:24;;;;;;;80.40;23.63;;;;;;;6.40;100.00;101706.56;5183220;28;20033;-73
2024/03/07 07:33:55;;;;;;;81.15;24.85;;;;;;;6.55;100.00;101712.59;5190975;28;20506;-73
2024/03/07 07:36:26;;;;;;;90.05;25.27;;;;;;;6.48;100.00;101704.81;5196670;28;20059;-73
2024/03/07 07:38:56;;;;;;;82.90;23.75;;;;;;;6.54;100.00;101707.41;5192486;28;20025;-73
2024/03/07 07:41:27;;;;;;;84.70;24.27;;;;;;;6.49;100.00;101704.84;5183593;28;20028;-73
2024/03/07 07:43:57;;;;;;;78.65;23.67;;;;;;;6.64;100.00;101707.41;5193347;28;20118;-73
2024/03/07 07:46:28;;;;;;;87.03;24.73;;;;;;;6.55;100.00;101702.22;5195165;28;20159;-73
2024/03/07 07:48:58;;;;;;;92.97;24.73;;;;;;;6.43;100.00;101701.38;5185446;28;20044;-73
2024/03/07 07:51:29;;;;;;;98.25;26.60;;;;;;;6.31;100.00;101701.38;5195281;28;20390;-73
2024/03/07 07:54:00;;;;;;;101.88;25.35;;;;;;;6.33;100.00;101704.81;5193339;28;20045;-73
2024/03/07 07:56:31;;;;;;;92.65;26.30;;;;;;;6.15;100.00;101710.03;5187405;28;20025;-73
2024/03/07 07:59:04;;;;;;;103.20;26.60;;;;;;;6.31;100.00;101704.84;5191446;28;20289;-73
2024/03/07 08:01:34;;;;;;;105.20;26.85;;;;;;;6.15;100.00;101704.84;5188031;28;20037;-73
2024/03/07 08:04:05;;;;;;;92.32;25.67;;;;;;;6.35;100.00;101697.91;5195706;28;20025;-73
2024/03/07 08:06:35;;;;;;;90.25;26.33;;;;;;;6.38;100.00;101708.28;5195541;28;20033;-73
2024/03/07 08:09:09;;;;;;;89.93;25.80;;;;;;;6.28;100.00;101701.38;5195258;28;20060;-73
2024/03/07 08:11:41;;;;;;;83.55;25.50;;;;;;;6.23;100.00;101706.56;5194847;28;20475;-73
2024/03/07 08:14:11;;;;;;;95.75;27.13;;;;;;;6.30;100.00;101712.63;5195190;28;20030;-73
2024/03/07 08:16:42;;;;;;;90.72;26.38;;;;;;;6.25;100.00;101712.63;5194618;28;20044;-73
2024/03/07 08:19:13;;;;;;;94.45;27.20;;;;;;;6.20;100.00;101709.16;5196123;28;20026;-73
2024/03/07 08:21:44;;;;;;;93.95;26.73;;;;;;;6.44;100.00;101713.50;5195558;28;20110;-73
2024/03/07 08:24:14;;;;;;;93.07;27.85;;;;;;;6.38;100.00;101708.28;5192438;28;20056;-73
2024/03/07 08:26:45;;;;;;;86.60;26.30;;;;;;;6.33;100.00;101712.63;5181794;28;20132;-74
2024/03/07 08:29:16;;;;;;;91.75;26.20;;;;;;;6.30;100.00;101710.91;5197021;28;20037;-73
2024/03/07 08:31:46;;;;;;;89.82;26.02;;;;;;;6.34;100.00;101702.25;5194933;28;20082;-73
2024/03/07 08:34:17;;;;;;;88.05;26.45;;;;;;;6.40;100.00;101707.44;5196104;28;20021;-73
2024/03/07 08:36:47;;;;;;;84.22;25.70;;;;;;;6.43;100.00;101710.00;5194926;28;20246;-73
2024/03/07 08:39:17;;;;;;;94.63;26.95;;;;;;;6.35;100.00;101714.34;5195903;28;20030;-73
2024/03/07 08:41:48;;;;;;;83.53;26.27;;;;;;;6.49;100.00;101711.75;5196032;28;20033;-74
2024/03/07 08:44:18;;;;;;;79.78;26.17;;;;;;;6.55;100.00;101709.13;5195836;28;20556;-73
2024/03/07 08:46:48;;;;;;;84.65;26.27;;;;;;;6.46;100.00;101701.38;5193817;28;20026;-73
2024/03/07 08:49:19;;;;;;;88.13;26.23;;;;;;;6.59;100.00;101710.88;5196905;28;20171;-74
2024/03/07 08:51:50;;;;;;;83.72;26.90;;;;;;;6.69;100.00;101702.19;5194812;28;20029;-73
2024/03/07 08:54:20;;;;;;;83.00;24.77;;;;;;;6.54;100.00;101705.69;5198018;28;20025;-73
2024/03/07 08:56:50;;;;;;;88.30;26.38;;;;;;;6.84;100.00;101708.22;5193758;28;20036;-73
2024/03/07 08:59:21;;;;;;;81.50;26.38;;;;;;;7.07;100.00;101708.19;5196534;28;20021;-73
2024/03/07 09:01:52;;;;;;;76.45;25.30;;;;;;;7.88;100.00;101704.25;5196447;28;20494;-73
2024/03/07 09:04:22;;;;;;;78.22;25.08;;;;;;;7.96;100.00;101706.81;5196368;28;20032;-73
2024/03/07 09:06:52;;;;;;;73.95;24.10;;;;;;;8.02;100.00;101702.44;5194916;28;20025;-73
2024/03/07 09:09:23;;;;;;;66.30;24.02;;;;;;;7.93;100.00;101699.91;5193335;28;20486;-73
2024/03/07 09:11:53;;;;;;;66.45;24.13;;;;;;;7.72;100.00;101702.63;5194197;28;20025;-74
2024/03/07 09:14:23;;;;;;;73.45;24.80;;;;;;;7.55;100.00;101707.06;5196426;28;20021;-73
2024/03/07 09:16:54;;;;;;;65.97;23.58;;;;;;;7.50;100.00;101701.03;5195149;28;20072;-73
2024/03/07 09:19:24;;;;;;;68.55;23.48;;;;;;;7.88;100.00;101708.63;5179931;28;20100;-73
2024/03/07 09:21:54;;;;;;;63.30;24.27;;;;;;;7.50;100.00;101700.19;5196669;28;20104;-73
2024/03/07 09:24:25;;;;;;;58.95;22.83;;;;;;;7.58;100.00;101696.66;5194017;28;20246;-73
2024/03/07 09:26:56;;;;;;;75.93;24.77;;;;;;;7.52;100.00;101701.88;5196245;28;20025;-73
2024/03/07 09:29:27;;;;;;;65.68;22.98;;;;;;;7.22;100.00;101698.56;5197957;28;20022;-73
2024/03/07 09:31:58;;;;;;;64.20;22.83;;;;;;;7.39;100.00;101696.75;5196230;28;20069;-73
2024/03/07 09:34:30;;;;;;;64.63;22.77;;;;;;;7.40;100.00;101703.69;5181485;28;20045;-73
2024/03/07 09:37:01;;;;;;;71.43;24.30;;;;;;;7.39;100.00;101694.16;5197322;28;20040;-73
2024/03/07 09:39:34;;;;;;;67.30;24.55;;;;;;;7.37;100.00;101703.72;5181299;28;20442;-73
2024/03/07 09:42:10;;;;;;;71.60;23.05;;;;;;;7.24;99.78;101706.38;5196797;28;20034;-73
2024/03/07 09:44:42;;;;;;;56.90;21.38;;;;;;;7.33;97.24;101700.25;5197211;28;20131;-73
2024/03/07 09:47:13;;;;;;;57.30;21.83;;;;;;;7.28;97.36;101685.53;5192373;23;20308;-75
2024/03/07 09:49:45;;;;;;;68.15;22.75;;;;;;;7.41;97.51;101700.22;5158662;28;20037;-75
2024/03/07 09:52:16;;;;;;;61.45;22.50;;;;;;;7.74;95.54;101692.22;5160996;28;20674;-75
2024/03/07 09:54:47;;;;;;;59.33;22.38;;;;;;;8.53;93.57;101685.56;5161774;28;20615;-75
2024/03/07 09:57:17;;;;;;;60.40;21.85;;;;;;;8.42;90.33;101688.22;5160390;28;20077;-75
2024/03/07 09:59:49;;;;;;;57.33;19.65;;;;;;;8.21;88.43;101683.22;5160677;28;20121;-75
2024/03/07 10:02:21;;;;;;;45.25;18.95;;;;;;;8.27;87.09;101687.53;5143545;28;20026;-75
2024/03/07 10:04:54;;;;;;;43.40;18.50;;;;;;;8.57;86.00;101693.31;5157393;28;20018;-75
2024/03/07 10:07:25;;;;;;;51.45;20.17;;;;;;;8.32;88.66;101690.94;5159395;28;20034;-75
2024/03/07 10:09:59;;;;;;;47.05;19.48;;;;;;;8.91;86.18;101679.03;5160207;28;20064;-75
2024/03/07 10:12:31;;;;;;;48.63;19.25;;;;;;;8.64;86.21;101683.69;5160930;28;20023;-75
2024/03/07 10:15:03;;;;;;;46.45;18.42;;;;;;;8.92;84.54;101679.94;5150171;28;20496;-75
2024/03/07 10:17:34;;;;;;;50.22;19.25;;;;;;;8.82;84.36;101679.16;5144992;28;20031;-75
2024/03/07 10:20:09;;;;;;;47.75;19.25;;;;;;;9.03;83.76;101670.25;5144858;28;20043;-75
2024/03/07 10:22:41;;;;;;;46.95;18.83;;;;;;;9.00;84.20;101667.66;5153115;28;20062;-75
2024/03/07 10:25:11;;;;;;;49.45;18.10;;;;;;;9.21;82.56;101665.66;5150532;28;20046;-75
2024/03/07 10:27:42;;;;;;;50.47;18.60;;;;;;;9.05;81.54;101671.94;5155879;28;20029;-75
2024/03/07 10:30:15;;;;;;;48.72;18.25;;;;;;;8.83;83.41;101675.69;5154533;28;20035;-75
2024/03/07 10:33:00;;;;;;;42.60;18.25;;;;;;;8.47;85.10;101677.78;5125118;28;20058;-75
2024/03/07 10:35:31;;;;;;;46.45;19.05;;;;;;;8.10;85.34;101682.44;5151900;28;20046;-75
2024/03/07 10:38:06;;;;;;;45.15;18.27;;;;;;;7.94;88.36;101683.41;5157668;28;20034;-75
2024/03/07 10:40:40;;;;;;;45.30;18.38;;;;;;;7.80;86.43;101685.25;5157600;28;20018;-75
2024/03/07 10:43:11;;;;;;;42.78;17.52;;;;;;;7.61;86.49;101687.97;5161839;28;20626;-75
2024/03/07 10:45:51;;;;;;;41.55;18.55;;;;;;;7.74;86.81;101680.06;5162600;28;20514;-75
2024/03/07 10:48:29;;;;;;;50.38;18.38;;;;;;;7.68;86.39;101680.13;5157133;28;20038;-75
2024/03/07 10:51:45;;;;;;;47.47;18.90;;;;;;;8.06;86.98;101672.88;5156418;28;20148;-74
2024/03/07 10:54:40;;;;;;;38.97;16.70;;;;;;;8.23;84.32;101671.06;5153496;28;20038;-75
2024/03/07 10:57:30;;;;;;;43.78;17.20;;;;;;;8.29;82.42;101671.03;5159174;28;20073;-75
2024/03/07 11:00:27;;;;;;;32.78;15.02;;;;;;;8.48;79.99;101662.16;5152401;28;20034;-74
2024/03/07 11:02:57;;;;;;;41.70;14.88;;;;;;;9.03;79.49;101652.84;5160787;28;20030;-74
2024/03/07 11:05:31;;;;;;;34.05;14.52;;;;;;;8.61;76.54;101657.69;5164140;28;20093;-75
2024/03/07 11:08:07;;;;;;;37.10;15.55;;;;;;;8.79;78.55;101658.34;5149139;28;20038;-75
2024/03/07 11:10:38;;;;;;;30.77;14.70;;;;;;;8.34;79.45;101652.72;5160334;28;20404;-75
2024/03/07 11:13:12;;;;;;;34.60;15.95;;;;;;;8.07;80.28;101652.94;5166175;28;20034;-75
2024/03/07 11:15:47;;;;;;;36.03;16.23;;;;;;;7.94;81.70;101661.72;5161715;28;20100;-75
2024/03/07 11:18:17;;;;;;;38.93;17.27;;;;;;;7.94;83.49;101657.41;5161676;28;20034;-75
2024/03/07 11:20:47;;;;;;;47.03;19.10;;;;;;;7.91;84.54;101649.59;5159342;28;20447;-75
2024/03/07 11:23:28;;;;;;;43.55;17.25;;;;;;;7.77;83.74;101654.06;5158883;28;20014;-74
2024/03/07 11:26:09;;;;;;;46.17;19.80;;;;;;;7.90;82.96;101649.63;5156731;28;20029;-75
2024/03/07 11:28:41;;;;;;;42.20;15.77;;;;;;;7.86;81.73;101646.16;5140070;28;20484;-75
2024/03/07 11:31:15;;;;;;;38.22;16.08;;;;;;;7.84;80.94;101645.31;5155527;28;20026;-74
2024/03/07 11:34:14;;;;;;;34.70;16.23;;;;;;;7.86;81.83;101643.56;5162118;28;20026;-75